Time;durP1;ratioP1;P1;durP2;ratioP2;P2;SDS_P1;SDS_P2;PMS_P1;PMS_P2;Temp;Humidity;BMP_temperature;BMP_pressure;BME280_temperature;BME280_humidity;BME280_pressure;Samples;Min_cycle;Max_cycle;Signal;HPM_P1;HPM_P2
2022/07/19 00:00:10;;;;;;;4.20;3.22;;;;;;;22.90;59.66;96563.84;5047254;28;20214;-81
2022/07/19 00:02:38;;;;;;;4.47;3.17;;;;;;;22.76;60.89;96557.50;5048943;28;20213;-81
2022/07/19 00:05:06;;;;;;;4.70;3.28;;;;;;;22.80;60.71;96562.09;5042636;28;20206;-81
2022/07/19 00:07:33;;;;;;;3.78;3.35;;;;;;;22.83;59.92;96568.94;5038794;28;20238;-81
2022/07/19 00:10:01;;;;;;;5.70;3.72;;;;;;;22.74;59.91;96560.56;5045338;28;20291;-81
2022/07/19 00:12:30;;;;;;;6.53;3.60;;;;;;;22.68;61.04;96561.75;5046074;28;20203;-81
2022/07/19 00:14:57;;;;;;;4.45;3.42;;;;;;;22.70;61.07;96566.94;5047786;28;20203;-81
2022/07/19 00:17:24;;;;;;;4.97;3.42;;;;;;;22.69;61.63;96562.56;5044321;28;20213;-81
2022/07/19 00:19:51;;;;;;;3.80;3.40;;;;;;;22.62;60.56;96561.03;5049523;28;20222;-81
2022/07/19 00:22:18;;;;;;;6.30;3.60;;;;;;;22.48;60.48;96551.88;5075677;28;20194;-81
2022/07/19 00:24:45;;;;;;;7.05;4.63;;;;;;;22.49;61.14;96549.97;5078226;28;20217;-81
2022/07/19 00:27:12;;;;;;;5.35;3.80;;;;;;;22.41;61.39;96554.22;5043810;28;20238;-81
2022/07/19 00:29:41;;;;;;;4.55;3.67;;;;;;;22.26;62.13;96540.72;5045839;28;20234;-81
2022/07/19 00:32:08;;;;;;;3.63;3.33;;;;;;;22.24;62.94;96548.44;5044419;28;20212;-81
2022/07/19 00:34:36;;;;;;;4.28;3.72;;;;;;;22.20;62.45;96556.47;5041803;28;20238;-81
2022/07/19 00:37:03;;;;;;;6.18;3.88;;;;;;;21.96;63.81;96549.41;5043568;28;20207;-81
2022/07/19 00:39:30;;;;;;;5.40;3.78;;;;;;;21.88;64.41;96542.63;5045095;28;20241;-81
2022/07/19 00:41:57;;;;;;;3.88;3.47;;;;;;;21.82;64.96;96555.66;5042482;28;20212;-81
2022/07/19 00:44:24;;;;;;;5.13;3.80;;;;;;;21.76;64.39;96545.84;5045701;28;20263;-81
2022/07/19 00:46:53;;;;;;;5.53;3.67;;;;;;;21.76;63.73;96528.53;5052790;28;20202;-80
2022/07/19 00:49:20;;;;;;;6.93;3.80;;;;;;;21.89;62.32;96550.59;5038587;28;20229;-81
2022/07/19 00:51:48;;;;;;;9.88;4.25;;;;;;;22.01;62.65;96543.88;5044639;28;20210;-81
2022/07/19 00:54:15;;;;;;;5.65;3.85;;;;;;;22.05;63.54;96533.91;5041463;28;20209;-81
2022/07/19 00:56:45;;;;;;;5.07;3.97;;;;;;;22.11;62.17;96533.53;5049460;28;20226;-81
2022/07/19 00:59:13;;;;;;;4.00;3.60;;;;;;;22.24;60.10;96527.25;5037007;28;20254;-81
2022/07/19 01:01:41;;;;;;;4.30;3.72;;;;;;;22.33;60.66;96535.66;5041215;28;20213;-81
2022/07/19 01:04:10;;;;;;;4.07;3.63;;;;;;;22.40;59.69;96533.31;5044682;28;20279;-81
2022/07/19 01:06:37;;;;;;;5.82;3.70;;;;;;;22.32;60.52;96527.69;5031690;28;20214;-81
2022/07/19 01:09:05;;;;;;;5.50;4.10;;;;;;;22.36;61.18;96537.81;5034705;28;20214;-81
2022/07/19 01:11:33;;;;;;;6.50;3.88;;;;;;;22.34;62.28;96529.03;5042814;28;20217;-81
2022/07/19 01:14:00;;;;;;;3.90;3.40;;;;;;;22.25;62.93;96531.66;5045514;28;20267;-81
2022/07/19 01:16:27;;;;;;;6.50;3.50;;;;;;;22.09;63.44;96530.25;5041754;28;20226;-81
2022/07/19 01:18:54;;;;;;;4.80;3.63;;;;;;;21.98;65.23;96531.53;5039953;28;20304;-81
2022/07/19 01:21:23;;;;;;;4.50;4.10;;;;;;;21.97;65.56;96531.78;5043196;28;20224;-81
2022/07/19 01:23:51;;;;;;;4.85;3.60;;;;;;;21.95;65.87;96532.09;5030326;28;20207;-81
2022/07/19 01:26:18;;;;;;;5.65;3.90;;;;;;;21.88;65.65;96531.66;5042652;28;20206;-81
2022/07/19 01:28:46;;;;;;;4.28;3.50;;;;;;;21.81;66.22;96521.03;5040405;28;20244;-81
2022/07/19 01:31:13;;;;;;;6.35;3.88;;;;;;;21.82;65.85;96517.16;5077022;28;20209;-81
2022/07/19 01:33:41;;;;;;;5.35;3.88;;;;;;;21.91;65.00;96506.31;5041549;28;20221;-81
2022/07/19 01:36:09;;;;;;;4.68;3.80;;;;;;;21.95;63.90;96523.03;5044858;28;20213;-81
2022/07/19 01:38:38;;;;;;;6.28;3.72;;;;;;;21.93;63.69;96517.03;5044385;28;20290;-81
2022/07/19 01:41:06;;;;;;;4.05;3.60;;;;;;;21.97;64.36;96509.78;5044897;28;20214;-81
2022/07/19 01:43:33;;;;;;;5.68;3.55;;;;;;;21.97;63.62;96513.41;5042131;28;20212;-81
2022/07/19 01:46:01;;;;;;;8.02;4.03;;;;;;;22.00;64.12;96514.75;5040589;28;20206;-81
2022/07/19 01:48:28;;;;;;;9.68;4.00;;;;;;;21.99;64.85;96521.34;5076645;28;20216;-81
2022/07/19 01:50:55;;;;;;;6.80;3.97;;;;;;;21.95;64.95;96517.56;5047392;28;20197;-81
2022/07/19 01:53:22;;;;;;;10.35;4.45;;;;;;;21.92;65.37;96520.88;5044556;28;20246;-81
2022/07/19 01:55:50;;;;;;;4.65;3.83;;;;;;;21.74;65.35;96520.59;5043375;28;20210;-81
2022/07/19 01:58:17;;;;;;;6.10;3.90;;;;;;;21.62;67.67;96514.72;5045385;28;20210;-81
2022/07/19 02:00:45;;;;;;;4.93;3.97;;;;;;;21.53;68.01;96516.47;5040936;28;20242;-81
2022/07/19 02:03:12;;;;;;;5.53;3.75;;;;;;;21.49;68.01;96507.22;5047954;28;20317;-80
2022/07/19 02:05:39;;;;;;;4.82;3.95;;;;;;;21.40;69.54;96517.22;5044113;28;20283;-81
2022/07/19 02:08:06;;;;;;;4.78;3.78;;;;;;;21.41;69.72;96513.38;5040823;28;20217;-80
2022/07/19 02:10:33;;;;;;;3.90;3.60;;;;;;;21.42;69.42;96501.28;5044338;28;20275;-81
2022/07/19 02:13:02;;;;;;;5.70;4.07;;;;;;;21.43;68.80;96503.72;5042935;28;20199;-80
2022/07/19 02:15:29;;;;;;;6.05;4.00;;;;;;;21.50;69.92;96498.69;5078005;28;20309;-80
2022/07/19 02:17:56;;;;;;;5.32;3.70;;;;;;;21.53;69.55;96491.75;5046839;28;20213;-81
2022/07/19 02:20:24;;;;;;;4.53;4.10;;;;;;;21.38;69.67;96491.97;5046234;28;20226;-80
2022/07/19 02:22:51;;;;;;;4.80;4.13;;;;;;;21.12;69.78;96481.28;5049179;28;20224;-80
2022/07/19 02:25:18;;;;;;;4.43;3.65;;;;;;;20.99;70.50;96490.25;5051028;28;20214;-80
2022/07/19 02:27:45;;;;;;;6.85;4.13;;;;;;;20.96;70.89;96482.59;5040848;28;20213;-80
2022/07/19 02:30:16;;;;;;;5.57;3.90;;;;;;;20.98;71.28;96474.06;5050434;28;20233;-81
2022/07/19 02:32:43;;;;;;;5.57;3.75;;;;;;;21.01;71.47;96479.00;5050050;28;20209;-80
2022/07/19 02:35:11;;;;;;;7.93;3.90;;;;;;;21.02;71.49;96473.19;5041787;28;20294;-80
2022/07/19 02:37:39;;;;;;;5.63;4.25;;;;;;;21.11;71.66;96476.91;5041769;28;20315;-81
2022/07/19 02:40:08;;;;;;;5.35;3.92;;;;;;;21.11;70.68;96474.16;5067409;28;20223;-80
2022/07/19 02:42:35;;;;;;;5.70;3.88;;;;;;;20.94;71.75;96473.81;5040984;28;20232;-80
2022/07/19 02:45:03;;;;;;;4.80;3.92;;;;;;;20.90;71.80;96466.47;5044470;28;20195;-80
2022/07/19 02:47:32;;;;;;;4.47;3.90;;;;;;;20.78;72.42;96466.88;5047847;28;20202;-80
2022/07/19 02:49:59;;;;;;;4.68;3.97;;;;;;;20.87;72.87;96473.38;5045553;28;20210;-80
2022/07/19 02:52:26;;;;;;;4.57;4.18;;;;;;;20.92;72.23;96465.09;5046741;28;20202;-80
2022/07/19 02:54:53;;;;;;;4.70;3.90;;;;;;;20.91;73.31;96457.16;5040334;28;20268;-80
2022/07/19 02:57:20;;;;;;;6.57;4.20;;;;;;;21.00;74.14;96467.19;5046569;28;20228;-80
2022/07/19 02:59:47;;;;;;;8.43;4.55;;;;;;;20.98;73.70;96457.59;5046553;28;20382;-80
2022/07/19 03:02:14;;;;;;;9.68;4.40;;;;;;;21.00;72.37;96466.38;5041461;28;20222;-80
2022/07/19 03:04:42;;;;;;;5.38;4.10;;;;;;;20.98;72.92;96468.59;5071743;28;20233;-80
2022/07/19 03:07:09;;;;;;;6.13;4.50;;;;;;;20.90;73.29;96470.06;5047583;28;20223;-80
2022/07/19 03:09:36;;;;;;;5.90;4.10;;;;;;;20.86;73.33;96458.00;5045990;28;20280;-80
2022/07/19 03:12:04;;;;;;;5.82;4.35;;;;;;;20.86;73.69;96454.44;5046321;28;20194;-83
2022/07/19 03:14:31;;;;;;;7.85;4.65;;;;;;;20.85;73.51;96469.28;5046848;28;20209;-83
2022/07/19 03:16:58;;;;;;;5.78;4.47;;;;;;;20.77;73.56;96470.72;5042885;28;20213;-83
2022/07/19 03:19:26;;;;;;;7.22;4.13;;;;;;;20.66;73.99;96461.81;5076734;28;20202;-83
2022/07/19 03:21:55;;;;;;;9.32;4.65;;;;;;;20.56;74.70;96466.59;5044936;28;20190;-84
2022/07/19 03:24:22;;;;;;;5.85;4.78;;;;;;;20.51;74.76;96461.16;5046113;28;20202;-83
2022/07/19 03:26:49;;;;;;;8.05;4.13;;;;;;;20.53;74.95;96461.69;5042247;28;20210;-83
2022/07/19 03:29:16;;;;;;;4.90;4.15;;;;;;;20.61;75.09;96461.88;5076439;28;20242;-83
2022/07/19 03:31:43;;;;;;;4.95;4.10;;;;;;;20.61;76.88;96463.78;5043816;28;20210;-83
2022/07/19 03:34:10;;;;;;;6.25;4.18;;;;;;;20.63;76.48;96472.56;5043672;28;20210;-83
2022/07/19 03:36:37;;;;;;;6.72;4.38;;;;;;;20.57;75.76;96460.81;5048467;28;20202;-82
2022/07/19 03:39:06;;;;;;;5.13;4.30;;;;;;;20.57;76.25;96451.78;5062348;28;20335;-83
2022/07/19 03:41:33;;;;;;;8.82;4.63;;;;;;;20.58;76.64;96461.66;5040218;28;20249;-84
2022/07/19 03:44:01;;;;;;;8.57;4.93;;;;;;;20.54;76.46;96464.13;5046230;28;20220;-83
2022/07/19 03:46:29;;;;;;;7.97;4.45;;;;;;;20.46;77.18;96469.44;5039812;28;20206;-83
2022/07/19 03:48:56;;;;;;;5.05;4.53;;;;;;;20.40;77.00;96465.94;5045936;28;20202;-84
2022/07/19 03:51:24;;;;;;;5.93;4.68;;;;;;;20.41;77.21;96464.84;5036922;28;20194;-83
2022/07/19 03:53:51;;;;;;;5.78;4.72;;;;;;;20.27;78.98;96464.66;5078778;28;20213;-83
2022/07/19 03:56:20;;;;;;;5.40;4.22;;;;;;;20.27;79.31;96463.84;5034397;28;20230;-83
2022/07/19 03:58:48;;;;;;;6.38;4.70;;;;;;;20.21;78.97;96463.06;5046146;28;20209;-83
2022/07/19 04:01:16;;;;;;;7.10;4.65;;;;;;;20.26;79.58;96462.19;5038776;28;20225;-83
2022/07/19 04:03:44;;;;;;;7.13;5.00;;;;;;;20.32;79.37;96459.13;5046573;28;20198;-83
2022/07/19 04:06:12;;;;;;;7.13;5.35;;;;;;;20.38;78.72;96465.41;5042556;28;20198;-83
2022/07/19 04:08:39;;;;;;;6.75;5.20;;;;;;;20.35;78.77;96466.78;5077660;28;20202;-84
2022/07/19 04:11:06;;;;;;;6.80;5.10;;;;;;;20.34;78.81;96462.41;5036866;28;20297;-83
2022/07/19 04:13:36;;;;;;;9.20;5.25;;;;;;;20.38;78.12;96468.16;5040470;28;20194;-83
2022/07/19 04:16:04;;;;;;;6.90;5.07;;;;;;;20.21;78.87;96465.00;5070661;28;20210;-83
2022/07/19 04:18:32;;;;;;;8.95;4.97;;;;;;;20.17;80.04;96459.25;5042807;28;20252;-83
2022/07/19 04:20:59;;;;;;;7.15;5.00;;;;;;;20.09;81.20;96459.88;5042650;28;20241;-83
2022/07/19 04:23:26;;;;;;;9.77;5.80;;;;;;;20.09;80.93;96468.09;5042103;28;20206;-82
2022/07/19 04:25:53;;;;;;;7.63;4.88;;;;;;;20.13;81.92;96477.41;5044980;28;20202;-83
2022/07/19 04:28:20;;;;;;;6.78;5.00;;;;;;;20.08;82.15;96476.63;5044324;28;20248;-83
2022/07/19 04:30:49;;;;;;;7.55;5.20;;;;;;;20.08;81.69;96471.13;5044963;28;20266;-82
2022/07/19 04:33:16;;;;;;;10.23;5.57;;;;;;;20.12;81.67;96473.03;5053304;28;20257;-82
2022/07/19 04:35:45;;;;;;;6.35;5.25;;;;;;;20.17;80.97;96480.38;5043279;28;20204;-83
2022/07/19 04:38:12;;;;;;;6.65;4.95;;;;;;;20.14;81.85;96481.78;5074919;28;20210;-81
2022/07/19 04:40:39;;;;;;;6.85;5.40;;;;;;;20.02;83.06;96475.84;5040652;28;20223;-82
2022/07/19 04:43:06;;;;;;;7.07;5.10;;;;;;;20.08;83.09;96480.16;5042436;28;20214;-82
2022/07/19 04:45:34;;;;;;;8.18;5.75;;;;;;;20.18;82.80;96482.00;5036276;28;20262;-82
2022/07/19 04:48:02;;;;;;;9.35;4.97;;;;;;;20.21;82.37;96484.19;5042324;28;20213;-82
2022/07/19 04:50:30;;;;;;;10.85;5.80;;;;;;;20.21;81.11;96484.19;5045491;28;20215;-83
2022/07/19 04:52:57;;;;;;;11.95;6.13;;;;;;;20.10;81.79;96488.94;5043238;28;20210;-82
2022/07/19 04:55:24;;;;;;;8.35;5.05;;;;;;;20.08;82.94;96480.16;5042710;28;20198;-82
2022/07/19 04:57:51;;;;;;;7.80;5.35;;;;;;;20.15;83.32;96488.91;5048500;28;20210;-82
2022/07/19 05:00:19;;;;;;;8.48;5.40;;;;;;;20.19;83.13;96487.22;5038831;28;20226;-82
2022/07/19 05:02:46;;;;;;;7.32;5.68;;;;;;;20.19;82.98;96487.22;5038695;28;20207;-82
2022/07/19 05:05:15;;;;;;;8.57;5.35;;;;;;;20.19;82.17;96489.94;5033007;28;20199;-82
2022/07/19 05:07:44;;;;;;;8.25;5.15;;;;;;;20.18;81.98;96499.28;5056170;28;20210;-82
2022/07/19 05:10:11;;;;;;;8.90;5.70;;;;;;;20.17;81.78;96494.91;5053225;28;20215;-82
2022/07/19 05:12:38;;;;;;;5.90;5.25;;;;;;;20.07;81.54;96492.28;5046823;28;20202;-82
2022/07/19 05:15:06;;;;;;;8.30;5.80;;;;;;;20.05;82.09;96494.47;5043881;28;20216;-83
2022/07/19 05:17:34;;;;;;;9.75;5.97;;;;;;;19.99;83.27;96501.91;5044770;28;20213;-81
2022/07/19 05:20:02;;;;;;;8.23;5.65;;;;;;;19.93;84.45;96491.28;5086494;28;20225;-80
2022/07/19 05:22:30;;;;;;;8.30;5.97;;;;;;;19.96;83.42;96497.00;5079238;28;20273;-80
2022/07/19 05:24:57;;;;;;;7.88;6.18;;;;;;;19.96;83.73;96499.75;5057215;28;20193;-80
2022/07/19 05:27:24;;;;;;;11.27;5.43;;;;;;;20.01;83.42;96498.88;5051618;28;20300;-81
2022/07/19 05:29:52;;;;;;;8.68;5.75;;;;;;;20.15;84.04;96496.31;5040783;28;20238;-81
2022/07/19 05:32:19;;;;;;;22.45;7.43;;;;;;;20.11;83.08;96493.31;5040934;28;20201;-81
2022/07/19 05:34:46;;;;;;;16.30;7.47;;;;;;;20.11;83.92;96498.78;5036352;28;20198;-81
2022/07/19 05:37:13;;;;;;;13.73;6.43;;;;;;;20.12;85.82;96500.44;5048699;28;20265;-81
2022/07/19 05:39:41;;;;;;;12.40;6.85;;;;;;;20.11;85.47;96487.84;5048451;28;20224;-80
2022/07/19 05:42:09;;;;;;;15.32;6.93;;;;;;;20.18;84.86;96493.81;5044394;28;20238;-81
2022/07/19 05:44:36;;;;;;;9.73;6.30;;;;;;;20.18;86.30;96499.28;5075405;28;20293;-80
2022/07/19 05:47:03;;;;;;;8.63;5.65;;;;;;;20.14;85.21;96498.25;5053571;28;20277;-80
2022/07/19 05:49:30;;;;;;;10.88;5.82;;;;;;;20.16;85.29;96493.25;5039840;28;20205;-81
2022/07/19 05:51:57;;;;;;;13.75;6.13;;;;;;;20.19;84.74;96492.69;5048054;28;20197;-81
2022/07/19 05:54:24;;;;;;;6.82;5.35;;;;;;;20.28;84.75;96499.19;5051189;28;20214;-81
2022/07/19 05:56:52;;;;;;;9.55;5.50;;;;;;;20.18;83.60;96482.84;5053030;28;20313;-81
2022/07/19 05:59:21;;;;;;;7.18;5.35;;;;;;;20.19;84.40;96489.94;5047663;28;20218;-80
2022/07/19 06:01:49;;;;;;;7.18;5.50;;;;;;;20.12;85.22;96488.66;5061019;28;20219;-81
2022/07/19 06:04:16;;;;;;;6.07;5.15;;;;;;;20.10;85.54;96493.59;5075120;28;20195;-80
2022/07/19 06:06:44;;;;;;;8.70;5.28;;;;;;;20.12;85.42;96497.69;5044348;28;20210;-80
2022/07/19 06:09:12;;;;;;;8.48;6.15;;;;;;;20.15;85.75;96488.91;5045976;28;20221;-80
2022/07/19 06:11:39;;;;;;;12.23;5.85;;;;;;;20.22;84.43;96489.38;5053118;28;20210;-81
2022/07/19 06:14:09;;;;;;;10.48;5.68;;;;;;;20.24;84.21;96486.38;5061504;28;20256;-81
2022/07/19 06:16:38;;;;;;;8.63;5.65;;;;;;;20.22;85.47;96489.38;5048905;28;20232;-80
2022/07/19 06:19:05;;;;;;;8.40;5.68;;;;;;;20.26;85.59;96495.09;5042517;28;20203;-80
2022/07/19 06:21:32;;;;;;;6.13;5.13;;;;;;;20.32;86.01;96494.78;5048878;28;20213;-81
2022/07/19 06:24:00;;;;;;;6.70;5.18;;;;;;;20.36;85.23;96489.56;5037869;28;20210;-80
2022/07/19 06:26:27;;;;;;;7.25;5.13;;;;;;;20.35;85.22;96487.91;5051835;28;20220;-81
2022/07/19 06:28:54;;;;;;;7.32;5.53;;;;;;;20.36;84.48;96484.88;5063051;28;20238;-81
2022/07/19 06:31:23;;;;;;;9.73;5.57;;;;;;;20.35;85.40;96486.00;5049986;28;20249;-81
2022/07/19 06:33:51;;;;;;;6.55;5.05;;;;;;;20.28;86.73;96487.41;5073627;28;20241;-81
2022/07/19 06:36:19;;;;;;;10.80;5.60;;;;;;;20.24;87.85;96492.66;5044050;28;20252;-81
2022/07/19 06:38:47;;;;;;;8.27;5.47;;;;;;;20.21;85.88;96487.75;5045024;28;20203;-81
2022/07/19 06:41:15;;;;;;;9.32;5.60;;;;;;;20.20;85.61;96486.09;5043949;28;20217;-80
2022/07/19 06:43:42;;;;;;;9.65;5.80;;;;;;;20.26;86.87;96478.66;5039377;28;20210;-81
2022/07/19 06:46:10;;;;;;;8.10;5.47;;;;;;;20.36;86.65;96473.91;5043921;28;20281;-81
2022/07/19 06:48:39;;;;;;;9.13;5.75;;;;;;;20.39;84.50;96484.31;5039572;28;20210;-79
2022/07/19 06:51:07;;;;;;;8.63;5.13;;;;;;;20.35;84.90;96477.75;5036315;28;20207;-82
2022/07/19 06:53:35;;;;;;;9.30;5.20;;;;;;;20.43;86.62;96478.25;5043689;28;20301;-82
2022/07/19 06:56:02;;;;;;;8.57;5.22;;;;;;;20.48;86.96;96483.69;5034527;28;20287;-82
2022/07/19 06:58:30;;;;;;;8.75;5.40;;;;;;;20.52;87.58;96482.81;5043759;28;20216;-82
2022/07/19 07:00:57;;;;;;;9.13;5.22;;;;;;;20.45;87.79;96482.34;5045826;28;20214;-82
2022/07/19 07:03:24;;;;;;;7.10;5.53;;;;;;;20.46;87.17;96485.91;5047838;28;20210;-82
2022/07/19 07:05:52;;;;;;;6.88;5.18;;;;;;;20.43;89.00;96492.78;5046237;28;20203;-83
2022/07/19 07:08:19;;;;;;;5.82;4.90;;;;;;;20.39;88.67;96478.03;5046929;28;20269;-82
2022/07/19 07:10:47;;;;;;;6.25;5.05;;;;;;;20.51;88.83;96483.09;5070290;28;20270;-82
2022/07/19 07:13:14;;;;;;;6.80;5.05;;;;;;;20.53;88.90;96484.44;5049054;28;20224;-82
2022/07/19 07:15:42;;;;;;;5.57;4.88;;;;;;;20.58;88.49;96472.63;5043968;28;20234;-82
2022/07/19 07:18:09;;;;;;;5.20;4.70;;;;;;;20.63;89.24;96478.03;5044833;28;20328;-82
2022/07/19 07:20:36;;;;;;;8.80;4.72;;;;;;;20.88;88.26;96475.00;5042253;28;20216;-82
2022/07/19 07:23:05;;;;;;;7.82;4.95;;;;;;;21.36;85.59;96469.47;5047607;28;20332;-82
2022/07/19 07:25:32;;;;;;;6.32;4.65;;;;;;;21.89;83.58;96473.63;5049322;28;20209;-82
2022/07/19 07:27:59;;;;;;;5.90;4.82;;;;;;;22.12;80.96;96471.06;5045090;28;20202;-82
2022/07/19 07:30:26;;;;;;;9.07;5.03;;;;;;;22.47;77.46;96483.41;5039469;28;20202;-82
2022/07/19 07:32:54;;;;;;;7.20;4.78;;;;;;;22.96;77.41;96485.53;5046155;28;20206;-83
2022/07/19 07:35:21;;;;;;;5.93;5.00;;;;;;;23.20;74.95;96475.13;5045938;28;20216;-82
2022/07/19 07:37:48;;;;;;;7.65;5.03;;;;;;;23.38;74.19;96482.44;5037221;28;20281;-83
2022/07/19 07:40:17;;;;;;;7.35;5.22;;;;;;;23.72;72.08;96476.47;5046019;28;20301;-82
2022/07/19 07:42:45;;;;;;;9.35;5.07;;;;;;;24.05;68.73;96481.78;5076946;28;20221;-82
2022/07/19 07:45:12;;;;;;;8.48;5.45;;;;;;;24.24;69.30;96476.91;5046703;28;20217;-83
2022/07/19 07:47:39;;;;;;;8.40;5.45;;;;;;;24.60;68.41;96478.72;5043233;28;20228;-83
2022/07/19 07:50:07;;;;;;;6.10;5.00;;;;;;;24.95;67.40;96477.78;5078074;28;20264;-83
2022/07/19 07:52:34;;;;;;;11.38;5.43;;;;;;;25.25;64.98;96478.88;5047425;28;20206;-83
2022/07/19 07:55:02;;;;;;;6.82;4.93;;;;;;;25.68;63.66;96480.94;5045717;28;20233;-83
2022/07/19 07:57:31;;;;;;;8.25;5.75;;;;;;;25.89;60.87;96474.44;5047480;28;20265;-83
2022/07/19 07:59:58;;;;;;;7.50;5.30;;;;;;;26.04;59.85;96478.66;5042235;28;20265;-83
2022/07/19 08:02:26;;;;;;;9.55;5.72;;;;;;;26.15;59.19;96474.44;5046475;28;20318;-83
2022/07/19 08:04:53;;;;;;;11.07;5.50;;;;;;;26.24;58.73;96461.41;5035347;28;20294;-83
2022/07/19 08:07:20;;;;;;;8.90;4.82;;;;;;;26.42;58.04;96473.28;5047057;28;20198;-83
2022/07/19 08:09:47;;;;;;;5.25;4.45;;;;;;;26.62;57.06;96469.00;5047302;28;20225;-83
2022/07/19 08:12:14;;;;;;;6.03;4.97;;;;;;;26.57;56.92;96470.00;5047282;28;20301;-83
2022/07/19 08:14:43;;;;;;;6.93;4.55;;;;;;;26.48;56.51;96460.88;5048441;28;20288;-83
2022/07/19 08:17:10;;;;;;;6.53;4.60;;;;;;;26.50;56.24;96469.69;5045561;28;20214;-83
2022/07/19 08:19:37;;;;;;;6.57;4.90;;;;;;;26.44;55.97;96468.25;5045661;28;20194;-83
2022/07/19 08:22:04;;;;;;;6.45;4.40;;;;;;;26.70;55.66;96462.63;5061198;28;20214;-82
2022/07/19 08:24:31;;;;;;;6.53;4.93;;;;;;;26.79;54.78;96460.66;5045688;28;20198;-83
2022/07/19 08:26:58;;;;;;;6.00;4.80;;;;;;;26.99;53.60;96465.47;5037295;28;20277;-83
2022/07/19 08:29:25;;;;;;;6.47;5.25;;;;;;;27.23;52.70;96464.06;5045064;28;20234;-83
2022/07/19 08:31:54;;;;;;;7.05;4.75;;;;;;;27.35;51.91;96455.84;5043430;28;20242;-83
2022/07/19 08:34:21;;;;;;;7.38;4.63;;;;;;;27.32;53.08;96462.03;5043955;28;20206;-83
2022/07/19 08:36:48;;;;;;;7.18;5.00;;;;;;;27.22;53.48;96456.91;5039236;28;20206;-83
2022/07/19 08:39:15;;;;;;;8.65;4.80;;;;;;;27.41;51.43;96460.84;5046310;28;20221;-83
2022/07/19 08:41:45;;;;;;;6.18;4.60;;;;;;;27.47;52.25;96450.41;5035915;28;20222;-83
2022/07/19 08:44:13;;;;;;;6.25;5.10;;;;;;;27.65;52.65;96453.88;5048972;28;20213;-83
2022/07/19 08:46:41;;;;;;;5.55;4.70;;;;;;;27.86;51.90;96455.50;5033966;28;20198;-83
2022/07/19 08:49:10;;;;;;;5.80;5.15;;;;;;;27.73;50.44;96451.03;5045328;28;20225;-83
2022/07/19 08:51:37;;;;;;;8.48;4.93;;;;;;;27.99;49.22;96461.09;5044949;28;20305;-83
2022/07/19 08:54:05;;;;;;;6.75;5.07;;;;;;;27.77;48.65;96456.72;5042598;28;20237;-83
2022/07/19 08:59:16;;;;;;;8.95;5.03;;;;;;;27.93;48.16;96449.41;5054248;28;20211;-83
2022/07/19 09:01:43;;;;;;;5.82;4.70;;;;;;;28.01;47.31;96451.28;5045820;28;20231;-82
2022/07/19 09:04:15;;;;;;;6.10;4.75;;;;;;;27.97;48.91;96447.59;5044878;28;20221;-82
2022/07/19 09:06:45;;;;;;;6.43;4.53;;;;;;;28.13;49.33;96453.31;5042086;28;20203;-82
2022/07/19 09:09:13;;;;;;;9.38;5.10;;;;;;;28.35;50.57;96450.19;5042429;28;20204;-83
2022/07/19 09:11:48;;;;;;;5.55;4.90;;;;;;;28.58;47.82;96445.84;5042287;28;20242;-83
2022/07/19 09:14:17;;;;;;;7.50;4.82;;;;;;;28.49;48.03;96452.69;5037392;28;20226;-83
2022/07/19 09:17:06;;;;;;;6.63;4.85;;;;;;;28.46;48.38;96445.03;5046123;28;20213;-83
2022/07/19 09:19:36;;;;;;;6.75;5.00;;;;;;;28.56;47.81;96444.59;5036658;28;20206;-83
2022/07/19 09:22:06;;;;;;;6.35;4.85;;;;;;;28.64;48.36;96446.47;5045024;28;20237;-83
2022/07/19 09:24:35;;;;;;;10.65;5.07;;;;;;;28.78;49.04;96448.94;5047642;28;20202;-83
2022/07/19 09:27:04;;;;;;;7.53;5.38;;;;;;;28.97;47.74;96443.66;5044802;28;20218;-83
2022/07/19 09:29:33;;;;;;;5.18;4.65;;;;;;;29.12;46.53;96444.91;5049284;28;20238;-83
2022/07/19 09:32:06;;;;;;;8.23;4.95;;;;;;;29.11;46.93;96435.78;5046056;28;20204;-83
2022/07/19 09:34:36;;;;;;;10.48;5.05;;;;;;;29.10;46.48;96436.09;5050606;28;20198;-84
2022/07/19 09:37:19;;;;;;;5.40;4.65;;;;;;;29.24;46.49;96437.41;5047431;28;20205;-83
2022/07/19 09:39:49;;;;;;;7.35;5.00;;;;;;;29.38;45.35;96436.25;5044575;28;20210;-83
2022/07/19 09:42:18;;;;;;;6.93;4.93;;;;;;;29.42;45.04;96431.63;5043789;28;20222;-83
2022/07/19 09:44:46;;;;;;;5.43;4.45;;;;;;;29.41;44.29;96432.78;5044850;28;20207;-83
2022/07/19 09:47:14;;;;;;;6.50;4.93;;;;;;;29.40;44.98;96434.75;5049501;28;20194;-83
2022/07/19 09:49:42;;;;;;;7.13;4.90;;;;;;;29.51;43.01;96438.69;5049971;28;20232;-83
2022/07/19 09:52:10;;;;;;;9.18;5.38;;;;;;;29.59;42.73;96432.19;5052000;28;20206;-83
2022/07/19 09:54:40;;;;;;;5.53;4.95;;;;;;;29.58;43.69;96435.31;5080663;28;20229;-83
2022/07/19 09:57:09;;;;;;;9.18;4.90;;;;;;;29.63;41.53;96430.31;5081994;28;20579;-83
2022/07/19 09:59:38;;;;;;;5.07;4.57;;;;;;;29.88;42.12;96431.06;5049903;28;20208;-83
2022/07/19 10:02:06;;;;;;;5.75;5.10;;;;;;;29.95;42.92;96428.50;5044687;28;20225;-84
2022/07/19 10:04:35;;;;;;;7.60;5.03;;;;;;;30.11;42.70;96431.38;5047097;28;20230;-83
2022/07/19 10:07:03;;;;;;;6.70;5.03;;;;;;;30.16;43.23;96416.38;5039762;28;20207;-84
2022/07/19 10:09:31;;;;;;;5.40;4.78;;;;;;;30.27;42.86;96420.28;5042329;28;20206;-83
2022/07/19 10:11:58;;;;;;;5.47;4.75;;;;;;;30.33;40.64;96421.63;5044629;28;20257;-84
2022/07/19 10:14:25;;;;;;;6.40;5.20;;;;;;;30.39;41.28;96414.63;5038136;28;20194;-83
2022/07/19 10:17:03;;;;;;;5.80;5.20;;;;;;;30.36;41.06;96416.16;5046026;28;20242;-83
2022/07/19 10:19:38;;;;;;;8.50;5.40;;;;;;;30.42;42.85;96414.72;5044570;28;20206;-84
2022/07/19 10:22:07;;;;;;;6.13;4.97;;;;;;;30.48;41.71;96412.47;5045610;28;20304;-83
2022/07/19 10:24:49;;;;;;;6.43;5.28;;;;;;;30.52;42.21;96413.44;5048215;28;20217;-83
2022/07/19 10:27:19;;;;;;;5.70;5.05;;;;;;;30.70;41.00;96417.50;5049976;28;20199;-84
2022/07/19 10:29:46;;;;;;;6.65;5.10;;;;;;;30.93;40.76;96408.50;5047438;28;20233;-84
2022/07/19 10:32:15;;;;;;;11.93;5.72;;;;;;;31.04;39.78;96409.59;5039088;28;20210;-84
2022/07/19 10:34:43;;;;;;;6.82;5.70;;;;;;;31.05;39.79;96414.78;5049295;28;20380;-83
2022/07/19 10:37:11;;;;;;;9.75;5.28;;;;;;;30.97;38.91;96401.03;5074833;28;20202;-84
2022/07/19 10:39:40;;;;;;;6.00;5.40;;;;;;;30.94;41.22;96399.78;5048731;28;20277;-84
2022/07/19 10:42:19;;;;;;;9.35;6.10;;;;;;;31.13;40.85;96390.72;5047646;28;20226;-84
2022/07/19 10:45:15;;;;;;;7.30;5.28;;;;;;;31.32;39.82;96393.56;5048117;28;20209;-84
2022/07/19 10:48:05;;;;;;;7.18;5.85;;;;;;;31.31;39.53;96388.31;5045649;28;20221;-83
2022/07/19 10:51:05;;;;;;;6.10;5.50;;;;;;;31.51;40.03;96385.22;5044602;28;20215;-84
2022/07/19 10:54:02;;;;;;;11.27;5.65;;;;;;;31.51;40.54;96390.00;5032114;28;20300;-84
2022/07/19 10:56:35;;;;;;;9.95;6.00;;;;;;;31.55;39.43;96383.34;4994964;28;20231;-83
2022/07/19 10:59:05;;;;;;;7.15;5.80;;;;;;;31.67;41.61;96384.41;5051911;28;20466;-84
2022/07/19 11:01:34;;;;;;;7.10;5.50;;;;;;;31.92;39.61;96374.56;5044861;28;20241;-84
2022/07/19 11:04:24;;;;;;;7.70;6.25;;;;;;;31.95;38.54;96368.25;5036802;28;20222;-83
2022/07/19 11:06:53;;;;;;;6.00;5.35;;;;;;;31.87;39.97;96372.88;5046027;28;20297;-84
2022/07/19 11:09:21;;;;;;;8.35;5.53;;;;;;;32.05;38.72;96358.47;5070436;28;20203;-84
2022/07/19 11:11:49;;;;;;;6.28;5.68;;;;;;;32.24;38.59;96366.88;5040568;28;20218;-84
2022/07/19 11:14:21;;;;;;;8.10;5.90;;;;;;;32.30;38.81;96360.59;5047407;28;20199;-84
2022/07/19 11:17:00;;;;;;;6.55;5.43;;;;;;;32.50;37.75;96355.75;5046816;28;20213;-84
2022/07/19 11:19:28;;;;;;;6.50;5.53;;;;;;;32.63;36.55;96360.00;5047382;28;20260;-84
2022/07/19 11:21:55;;;;;;;7.70;5.13;;;;;;;32.67;35.63;96355.28;5044637;28;20218;-84
2022/07/19 11:24:23;;;;;;;7.95;5.97;;;;;;;32.71;35.49;96348.97;5048618;28;20217;-84
2022/07/19 11:26:51;;;;;;;6.15;5.45;;;;;;;32.75;35.98;96341.47;5043199;28;20205;-84
2022/07/19 11:29:18;;;;;;;8.40;5.57;;;;;;;32.66;35.92;96348.09;5040843;28;20264;-83
2022/07/19 11:31:48;;;;;;;6.32;5.40;;;;;;;32.80;36.24;96344.75;5048209;28;20206;-83
2022/07/19 11:34:15;;;;;;;7.85;5.70;;;;;;;32.87;35.28;96342.06;5045829;28;20202;-84
2022/07/19 11:36:42;;;;;;;8.07;5.78;;;;;;;32.95;35.73;96326.19;5040829;28;20219;-84
2022/07/19 11:39:09;;;;;;;9.13;5.70;;;;;;;32.80;37.07;96329.97;5050669;28;20209;-83